Time;durP1;ratioP1;P1;durP2;ratioP2;P2;SDS_P1;SDS_P2;PMS_P1;PMS_P2;Temp;Humidity;BMP_temperature;BMP_pressure;BME280_temperature;BME280_humidity;BME280_pressure;Samples;Min_cycle;Max_cycle;Signal;HPM_P1;HPM_P2
2022/07/22 00:02:03;;;;;;;6.43;5.72;;;;;;;;;;4926031;29;20051;-69
2022/07/22 00:04:30;;;;;;;7.80;6.38;;;;;;;;;;4925197;29;20475;-69
2022/07/22 00:06:57;;;;;;;7.63;6.45;;;;;;;;;;4926644;29;20054;-69
2022/07/22 00:09:24;;;;;;;10.68;7.20;;;;;;;;;;4925377;29;20619;-69
2022/07/22 00:11:51;;;;;;;9.55;7.28;;;;;;;;;;4920590;29;20075;-69
2022/07/22 00:14:17;;;;;;;7.30;6.60;;;;;;;;;;4925178;29;20459;-69
2022/07/22 00:16:44;;;;;;;8.13;6.57;;;;;;;;;;4927108;29;20059;-69
2022/07/22 00:19:11;;;;;;;7.22;6.35;;;;;;;;;;4924531;29;20040;-69
2022/07/22 00:21:37;;;;;;;7.55;6.53;;;;;;;;;;4926461;29;20410;-69
2022/07/22 00:24:04;;;;;;;8.88;6.78;;;;;;;;;;4925783;29;20055;-69
2022/07/22 00:26:31;;;;;;;7.65;6.60;;;;;;;;;;4922392;29;20060;-69
2022/07/22 00:28:57;;;;;;;9.07;7.28;;;;;;;;;;4923575;29;20408;-69
2022/07/22 00:31:25;;;;;;;7.57;6.88;;;;;;;;;;4925825;29;20091;-69
2022/07/22 00:33:51;;;;;;;8.48;7.03;;;;;;;;;;4924790;29;20392;-69
2022/07/22 00:36:18;;;;;;;8.80;6.90;;;;;;;;;;4925610;29;20055;-69
2022/07/22 00:38:45;;;;;;;7.55;6.85;;;;;;;;;;4920609;29;20083;-69
2022/07/22 00:41:11;;;;;;;8.57;7.78;;;;;;;;;;4924631;29;20056;-69
2022/07/22 00:43:53;;;;;;;9.45;6.88;;;;;;;;;;4922290;29;20430;-69
2022/07/22 00:46:21;;;;;;;8.65;6.88;;;;;;;;;;4922470;29;20095;-69
2022/07/22 00:48:48;;;;;;;8.07;7.28;;;;;;;;;;4922274;29;20529;-69
2022/07/22 00:51:17;;;;;;;8.40;7.40;;;;;;;;;;4922881;29;20534;-69
2022/07/22 00:53:44;;;;;;;8.02;7.03;;;;;;;;;;4924810;29;20059;-69
2022/07/22 00:56:11;;;;;;;8.82;7.43;;;;;;;;;;4924112;29;20063;-69
2022/07/22 00:58:38;;;;;;;9.60;7.53;;;;;;;;;;4924315;29;20475;-69
2022/07/22 01:01:04;;;;;;;8.85;6.95;;;;;;;;;;4922653;29;20052;-69
2022/07/22 01:03:31;;;;;;;9.20;6.90;;;;;;;;;;4920450;29;20458;-69
2022/07/22 01:05:58;;;;;;;8.18;7.47;;;;;;;;;;4925846;29;20056;-69
2022/07/22 01:08:24;;;;;;;8.38;7.47;;;;;;;;;;4921418;29;20055;-69
2022/07/22 01:10:52;;;;;;;8.70;7.70;;;;;;;;;;4917758;29;20062;-69
2022/07/22 01:13:18;;;;;;;8.32;7.53;;;;;;;;;;4923827;29;20059;-69
2022/07/22 01:15:45;;;;;;;10.73;8.15;;;;;;;;;;4922267;29;20426;-69
2022/07/22 01:18:12;;;;;;;8.20;7.50;;;;;;;;;;4921363;29;20067;-69
2022/07/22 01:20:38;;;;;;;9.05;7.78;;;;;;;;;;4928495;29;20051;-69
2022/07/22 01:23:05;;;;;;;10.27;8.07;;;;;;;;;;4927190;29;20048;-69
2022/07/22 01:25:32;;;;;;;10.18;8.45;;;;;;;;;;4928132;29;20054;-69
2022/07/22 01:27:58;;;;;;;9.45;8.50;;;;;;;;;;4922254;29;20055;-69
2022/07/22 01:30:25;;;;;;;8.70;7.88;;;;;;;;;;4889730;29;1121218;-69
2022/07/22 01:32:52;;;;;;;8.75;7.85;;;;;;;;;;4928471;29;20060;-69
2022/07/22 01:35:18;;;;;;;10.15;8.63;;;;;;;;;;4928859;29;20060;-69
2022/07/22 01:37:45;;;;;;;8.57;7.78;;;;;;;;;;4928863;29;20056;-69
2022/07/22 01:40:12;;;;;;;10.18;7.95;;;;;;;;;;4927827;29;20056;-69
2022/07/22 01:42:39;;;;;;;9.18;7.80;;;;;;;;;;4927012;29;20056;-69
2022/07/22 01:45:06;;;;;;;9.63;8.02;;;;;;;;;;4927270;29;20062;-69
2022/07/22 01:47:33;;;;;;;9.43;7.47;;;;;;;;;;4929470;29;20054;-69
2022/07/22 01:50:00;;;;;;;10.48;8.05;;;;;;;;;;4924861;29;20423;-69
2022/07/22 01:52:26;;;;;;;9.15;7.50;;;;;;;;;;4928081;29;20048;-69
2022/07/22 01:54:53;;;;;;;8.93;8.02;;;;;;;;;;4927922;29;20055;-69
2022/07/22 01:57:20;;;;;;;9.85;8.90;;;;;;;;;;4928732;29;20446;-69
2022/07/22 01:59:46;;;;;;;11.40;8.13;;;;;;;;;;4925552;29;20495;-69
2022/07/22 02:02:13;;;;;;;9.55;8.65;;;;;;;;;;4925691;29;20052;-69
2022/07/22 02:04:40;;;;;;;11.00;8.32;;;;;;;;;;4927641;29;20060;-69
2022/07/22 02:07:06;;;;;;;9.55;8.65;;;;;;;;;;4928966;29;20083;-69
2022/07/22 02:09:33;;;;;;;9.73;8.82;;;;;;;;;;4927282;29;20055;-69
2022/07/22 02:12:00;;;;;;;9.85;8.80;;;;;;;;;;4928226;29;20450;-69
2022/07/22 02:14:26;;;;;;;8.68;7.88;;;;;;;;;;4928090;29;20059;-69
2022/07/22 02:16:53;;;;;;;11.88;9.02;;;;;;;;;;4927713;29;20052;-69
2022/07/22 02:19:20;;;;;;;9.95;8.55;;;;;;;;;;4924895;29;20063;-69
2022/07/22 02:21:46;;;;;;;9.77;8.77;;;;;;;;;;4924722;29;20044;-69
2022/07/22 02:24:13;;;;;;;11.48;9.82;;;;;;;;;;4928460;29;20293;-69
2022/07/22 02:26:40;;;;;;;10.75;9.68;;;;;;;;;;4926471;29;20516;-69
2022/07/22 02:29:06;;;;;;;9.95;8.95;;;;;;;;;;4928930;29;20039;-69
2022/07/22 02:31:33;;;;;;;12.98;9.57;;;;;;;;;;4925670;29;20074;-69
2022/07/22 02:34:00;;;;;;;10.60;9.60;;;;;;;;;;4928808;29;20058;-69
2022/07/22 02:36:26;;;;;;;10.93;9.50;;;;;;;;;;4926198;29;20489;-69
2022/07/22 02:38:53;;;;;;;10.15;9.15;;;;;;;;;;4927963;29;20044;-69
2022/07/22 02:41:20;;;;;;;9.70;8.65;;;;;;;;;;4918446;29;20518;-69
2022/07/22 02:43:47;;;;;;;11.82;9.43;;;;;;;;;;4925958;29;20060;-69
2022/07/22 02:46:14;;;;;;;10.35;9.20;;;;;;;;;;4926894;29;20048;-69
2022/07/22 02:48:41;;;;;;;10.48;9.35;;;;;;;;;;4927892;29;20086;-69
2022/07/22 02:51:07;;;;;;;10.35;9.35;;;;;;;;;;4926782;29;20488;-69
2022/07/22 02:53:34;;;;;;;9.50;8.60;;;;;;;;;;4927510;29;20070;-69
2022/07/22 02:56:01;;;;;;;10.40;9.40;;;;;;;;;;4926659;29;20056;-70
2022/07/22 02:58:27;;;;;;;10.40;9.30;;;;;;;;;;4924491;29;20063;-69
2022/07/22 03:00:54;;;;;;;10.32;9.32;;;;;;;;;;4927111;29;20050;-69
2022/07/22 03:03:21;;;;;;;11.80;8.77;;;;;;;;;;4926844;29;20487;-69
2022/07/22 03:05:47;;;;;;;15.57;10.40;;;;;;;;;;4927735;29;20063;-69
2022/07/22 03:08:14;;;;;;;11.52;9.48;;;;;;;;;;4925898;29;20051;-69
2022/07/22 03:10:41;;;;;;;11.18;9.98;;;;;;;;;;4924025;29;20055;-69
2022/07/22 03:13:07;;;;;;;10.93;9.82;;;;;;;;;;4925819;29;20047;-70
2022/07/22 03:15:34;;;;;;;11.80;9.50;;;;;;;;;;4927876;29;20058;-69
2022/07/22 03:18:01;;;;;;;10.90;9.30;;;;;;;;;;4923623;29;20048;-69
2022/07/22 03:20:28;;;;;;;10.35;9.35;;;;;;;;;;4926339;29;20047;-70
2022/07/22 03:22:54;;;;;;;12.77;9.60;;;;;;;;;;4925741;29;20059;-69
2022/07/22 03:25:21;;;;;;;10.85;9.80;;;;;;;;;;4927036;29;20056;-69
2022/07/22 03:27:48;;;;;;;10.82;9.73;;;;;;;;;;4926000;29;20154;-69
2022/07/22 03:30:14;;;;;;;12.50;10.15;;;;;;;;;;4924495;29;20499;-69
2022/07/22 03:32:44;;;;;;;11.05;9.70;;;;;;;;;;4923987;29;20048;-69
2022/07/22 03:35:12;;;;;;;10.90;9.85;;;;;;;;;;4923178;29;20168;-69
2022/07/22 03:37:39;;;;;;;11.50;10.38;;;;;;;;;;4926339;29;20090;-70
2022/07/22 03:40:07;;;;;;;11.43;10.23;;;;;;;;;;4923784;29;20086;-70
2022/07/22 03:42:34;;;;;;;11.15;9.73;;;;;;;;;;4923229;29;20102;-69
2022/07/22 03:45:00;;;;;;;10.73;9.73;;;;;;;;;;4925235;29;20047;-69
2022/07/22 03:47:27;;;;;;;10.82;9.73;;;;;;;;;;4927518;29;20075;-69
2022/07/22 03:49:54;;;;;;;11.23;10.13;;;;;;;;;;4924935;29;20040;-70
2022/07/22 03:52:20;;;;;;;12.73;10.52;;;;;;;;;;4921094;29;20063;-70
2022/07/22 03:54:47;;;;;;;12.15;10.02;;;;;;;;;;4921787;29;20411;-70
2022/07/22 03:57:14;;;;;;;11.27;10.00;;;;;;;;;;4927052;29;20063;-69
2022/07/22 03:59:40;;;;;;;10.70;9.60;;;;;;;;;;4922011;29;20056;-69
2022/07/22 04:02:07;;;;;;;12.10;10.55;;;;;;;;;;4926251;29;20059;-69
2022/07/22 04:04:34;;;;;;;12.63;10.95;;;;;;;;;;4925309;29;20084;-69
2022/07/22 04:07:00;;;;;;;12.32;10.68;;;;;;;;;;4926614;29;20066;-69
2022/07/22 04:09:27;;;;;;;11.70;10.52;;;;;;;;;;4925491;29;20415;-69
2022/07/22 04:11:53;;;;;;;11.73;10.52;;;;;;;;;;4921133;29;20051;-70
2022/07/22 04:14:20;;;;;;;11.23;10.05;;;;;;;;;;4922150;29;20076;-70
2022/07/22 04:16:47;;;;;;;11.95;9.82;;;;;;;;;;4926309;29;20055;-71
2022/07/22 04:19:14;;;;;;;11.35;10.18;;;;;;;;;;4925908;29;20055;-70
2022/07/22 04:21:41;;;;;;;11.57;10.38;;;;;;;;;;4925270;29;20491;-70
2022/07/22 04:24:08;;;;;;;12.02;10.30;;;;;;;;;;4921514;29;20048;-70
2022/07/22 04:26:36;;;;;;;11.30;10.18;;;;;;;;;;4925267;29;20400;-69
2022/07/22 04:29:04;;;;;;;10.98;9.90;;;;;;;;;;4919656;29;20061;-68
2022/07/22 04:31:31;;;;;;;11.48;10.38;;;;;;;;;;4920178;29;20058;-70
2022/07/22 04:33:58;;;;;;;10.73;9.63;;;;;;;;;;4923990;29;20052;-70
2022/07/22 04:36:25;;;;;;;10.73;9.63;;;;;;;;;;4926961;29;20066;-69
2022/07/22 04:38:51;;;;;;;11.95;10.68;;;;;;;;;;4919364;29;20048;-70
2022/07/22 04:41:19;;;;;;;10.25;9.25;;;;;;;;;;4923953;29;20083;-70
2022/07/22 04:43:46;;;;;;;12.60;10.20;;;;;;;;;;4924856;29;20538;-71
2022/07/22 04:46:13;;;;;;;10.43;9.43;;;;;;;;;;4923975;29;20056;-70
2022/07/22 04:48:39;;;;;;;10.82;9.73;;;;;;;;;;4918801;29;20131;-71
2022/07/22 04:51:06;;;;;;;12.40;11.07;;;;;;;;;;4921507;29;20063;-71
2022/07/22 04:53:33;;;;;;;10.13;9.10;;;;;;;;;;4924255;29;20463;-71
2022/07/22 04:56:14;;;;;;;12.40;10.63;;;;;;;;;;4923812;29;20516;-70
2022/07/22 04:58:42;;;;;;;11.23;10.10;;;;;;;;;;4922525;29;20058;-71
2022/07/22 05:01:09;;;;;;;11.30;10.18;;;;;;;;;;4924329;29;20052;-71
2022/07/22 05:03:40;;;;;;;11.57;9.60;;;;;;;;;;4929111;29;20082;-71
2022/07/22 05:06:07;;;;;;;11.57;10.38;;;;;;;;;;4929216;29;20059;-71
2022/07/22 05:08:34;;;;;;;12.32;10.65;;;;;;;;;;4933374;29;20051;-69
2022/07/22 05:11:00;;;;;;;11.02;9.95;;;;;;;;;;4942376;29;20047;-69
2022/07/22 05:13:27;;;;;;;11.07;9.93;;;;;;;;;;4930854;29;20517;-71
2022/07/22 05:15:53;;;;;;;11.05;9.70;;;;;;;;;;4928115;29;20051;-70
2022/07/22 05:18:20;;;;;;;12.10;10.90;;;;;;;;;;4930035;29;20059;-69
2022/07/22 05:20:48;;;;;;;13.52;11.00;;;;;;;;;;4927666;29;20077;-69
2022/07/22 05:23:15;;;;;;;12.20;10.90;;;;;;;;;;4921737;29;20063;-69
2022/07/22 05:25:41;;;;;;;12.50;11.32;;;;;;;;;;4925795;29;20058;-70
2022/07/22 05:28:08;;;;;;;12.00;10.77;;;;;;;;;;4927721;29;20043;-69
2022/07/22 05:30:34;;;;;;;12.95;11.65;;;;;;;;;;4923266;29;20047;-69
2022/07/22 05:33:01;;;;;;;13.32;11.30;;;;;;;;;;4925063;29;20060;-69
2022/07/22 05:35:29;;;;;;;16.77;11.50;;;;;;;;;;4925781;29;20114;-69
2022/07/22 05:37:56;;;;;;;13.23;10.95;;;;;;;;;;4927288;29;20048;-69
2022/07/22 05:40:22;;;;;;;12.15;10.43;;;;;;;;;;4923044;29;20049;-69
2022/07/22 05:42:49;;;;;;;13.15;10.73;;;;;;;;;;4924999;29;20059;-69
2022/07/22 05:45:16;;;;;;;14.50;12.20;;;;;;;;;;4926790;29;20135;-69
2022/07/22 05:47:42;;;;;;;11.52;10.48;;;;;;;;;;4926739;29;20053;-69
2022/07/22 05:50:09;;;;;;;12.98;11.65;;;;;;;;;;4925143;29;20048;-69
2022/07/22 05:52:36;;;;;;;15.43;11.63;;;;;;;;;;4925444;29;20087;-69
2022/07/22 05:55:03;;;;;;;12.77;11.48;;;;;;;;;;4926697;29;20066;-70
2022/07/22 05:57:30;;;;;;;11.85;10.50;;;;;;;;;;4925113;29;20056;-69
2022/07/22 05:59:56;;;;;;;12.32;10.98;;;;;;;;;;4927067;29;20048;-70
2022/07/22 06:02:23;;;;;;;12.90;11.60;;;;;;;;;;4922581;29;20044;-69
2022/07/22 06:04:50;;;;;;;12.77;11.55;;;;;;;;;;4926385;29;20062;-69
2022/07/22 06:07:17;;;;;;;14.25;10.77;;;;;;;;;;4924485;29;20055;-69
2022/07/22 06:09:46;;;;;;;12.98;10.95;;;;;;;;;;4926415;29;20051;-70
2022/07/22 06:12:13;;;;;;;11.32;10.10;;;;;;;;;;4922940;29;20500;-69
2022/07/22 06:14:39;;;;;;;11.70;10.48;;;;;;;;;;4924875;29;20048;-68
2022/07/22 06:17:06;;;;;;;11.75;10.55;;;;;;;;;;4926197;29;20056;-69
2022/07/22 06:19:33;;;;;;;12.65;11.35;;;;;;;;;;4925713;29;20051;-69
2022/07/22 06:21:59;;;;;;;11.23;10.13;;;;;;;;;;4925151;29;20058;-69
2022/07/22 06:24:26;;;;;;;11.82;10.63;;;;;;;;;;4924999;29;20058;-69
2022/07/22 06:26:53;;;;;;;11.95;10.60;;;;;;;;;;4925663;29;20048;-70
2022/07/22 06:29:20;;;;;;;12.48;11.15;;;;;;;;;;4925047;29;20182;-70
2022/07/22 06:31:46;;;;;;;14.10;10.40;;;;;;;;;;4926304;29;20051;-72
2022/07/22 06:34:13;;;;;;;12.40;10.57;;;;;;;;;;4923580;29;20500;-73
2022/07/22 06:36:40;;;;;;;14.23;10.02;;;;;;;;;;4927583;29;20060;-73
2022/07/22 06:39:06;;;;;;;11.57;10.38;;;;;;;;;;4923422;29;20052;-72
2022/07/22 06:41:33;;;;;;;13.48;11.25;;;;;;;;;;4928065;29;20064;-73
2022/07/22 06:44:00;;;;;;;11.40;10.20;;;;;;;;;;4926609;29;20055;-75
2022/07/22 06:46:27;;;;;;;11.80;10.38;;;;;;;;;;4923730;29;20060;-75
2022/07/22 06:48:55;;;;;;;12.15;10.40;;;;;;;;;;4927190;29;20094;-75
2022/07/22 06:51:23;;;;;;;10.60;9.57;;;;;;;;;;4930741;29;20082;-75
2022/07/22 06:53:52;;;;;;;12.85;9.98;;;;;;;;;;4926763;29;20047;-75
2022/07/22 06:56:19;;;;;;;12.40;11.10;;;;;;;;;;4928627;29;20056;-75
2022/07/22 06:58:46;;;;;;;12.25;11.05;;;;;;;;;;4929640;29;20048;-75
2022/07/22 07:01:12;;;;;;;11.82;10.10;;;;;;;;;;4923480;29;20055;-75
2022/07/22 07:03:39;;;;;;;15.50;10.90;;;;;;;;;;4927186;29;20052;-75
2022/07/22 07:06:07;;;;;;;10.35;9.43;;;;;;;;;;4926067;29;20056;-75
2022/07/22 07:08:34;;;;;;;11.25;9.30;;;;;;;;;;4928450;29;20135;-75
2022/07/22 07:11:01;;;;;;;11.98;10.25;;;;;;;;;;4926419;29;20044;-75
2022/07/22 07:13:27;;;;;;;13.32;10.48;;;;;;;;;;4928624;29;20056;-75
2022/07/22 07:15:54;;;;;;;11.65;10.32;;;;;;;;;;4924119;29;20416;-75
2022/07/22 07:18:21;;;;;;;15.35;10.20;;;;;;;;;;4927843;29;20058;-75
2022/07/22 07:20:48;;;;;;;11.13;10.00;;;;;;;;;;4926481;29;20054;-75
2022/07/22 07:23:15;;;;;;;11.15;10.13;;;;;;;;;;4926193;29;20063;-74
2022/07/22 07:25:42;;;;;;;12.15;10.77;;;;;;;;;;4921399;29;20047;-75
2022/07/22 07:28:09;;;;;;;10.60;9.68;;;;;;;;;;4915648;29;20048;-75
2022/07/22 07:30:35;;;;;;;13.40;9.75;;;;;;;;;;4926403;29;20101;-75
2022/07/22 07:33:02;;;;;;;11.80;9.75;;;;;;;;;;4928398;29;20055;-75
2022/07/22 07:35:29;;;;;;;10.00;8.82;;;;;;;;;;4924443;29;20052;-75
2022/07/22 07:37:57;;;;;;;12.15;9.73;;;;;;;;;;4921467;29;20588;-75
2022/07/22 07:40:24;;;;;;;11.77;10.15;;;;;;;;;;4925850;29;20048;-75
2022/07/22 07:42:51;;;;;;;13.43;9.90;;;;;;;;;;4925603;29;20048;-75
2022/07/22 07:45:28;;;;;;;11.85;9.50;;;;;;;;;;4921816;29;20061;-75
2022/07/22 07:47:54;;;;;;;12.65;10.13;;;;;;;;;;4923682;29;20407;-75
2022/07/22 07:50:21;;;;;;;12.73;9.25;;;;;;;;;;4922491;29;20048;-75
2022/07/22 07:52:48;;;;;;;11.35;10.32;;;;;;;;;;4923136;29;20052;-75
2022/07/22 07:55:39;;;;;;;10.27;9.27;;;;;;;;;;4925853;29;20047;-75
2022/07/22 07:58:06;;;;;;;11.07;9.98;;;;;;;;;;4923535;29;20056;-75
2022/07/22 08:00:34;;;;;;;11.10;9.90;;;;;;;;;;4926014;29;20048;-75
2022/07/22 08:03:02;;;;;;;13.25;9.68;;;;;;;;;;4924082;29;20048;-75
2022/07/22 08:05:29;;;;;;;11.00;8.93;;;;;;;;;;4929753;29;20082;-75
2022/07/22 08:07:56;;;;;;;11.73;10.13;;;;;;;;;;4925997;29;20108;-75
2022/07/22 08:10:23;;;;;;;16.92;11.57;;;;;;;;;;4922392;29;20084;-75
2022/07/22 08:13:10;;;;;;;11.60;10.50;;;;;;;;;;4919307;29;20052;-74
2022/07/22 08:15:37;;;;;;;12.43;10.88;;;;;;;;;;4923202;29;20048;-75
2022/07/22 08:18:04;;;;;;;10.25;9.32;;;;;;;;;;4924784;29;20507;-75
2022/07/22 08:20:31;;;;;;;10.55;9.45;;;;;;;;;;4919623;29;20082;-75
2022/07/22 08:22:58;;;;;;;10.48;9.35;;;;;;;;;;4921072;29;20086;-75
2022/07/22 08:25:25;;;;;;;10.55;9.13;;;;;;;;;;4924534;29;20087;-75
2022/07/22 08:27:52;;;;;;;10.40;9.40;;;;;;;;;;4924647;29;20475;-75
2022/07/22 08:30:19;;;;;;;12.10;10.85;;;;;;;;;;4927908;29;20086;-75
2022/07/22 08:32:46;;;;;;;10.95;9.85;;;;;;;;;;4929269;29;20055;-75
2022/07/22 08:35:13;;;;;;;12.25;10.75;;;;;;;;;;4923418;29;20517;-75
2022/07/22 08:37:40;;;;;;;10.65;8.98;;;;;;;;;;4928500;29;20582;-75
2022/07/22 08:40:08;;;;;;;10.18;9.20;;;;;;;;;;4929184;29;20056;-75
2022/07/22 08:42:39;;;;;;;10.63;9.50;;;;;;;;;;4926322;29;20497;-72
2022/07/22 08:45:07;;;;;;;11.18;9.38;;;;;;;;;;4925876;29;20051;-72
2022/07/22 08:47:47;;;;;;;10.65;9.02;;;;;;;;;;4927350;29;20530;-70
2022/07/22 08:50:14;;;;;;;9.30;8.32;;;;;;;;;;4924666;29;20430;-70
2022/07/22 08:52:40;;;;;;;12.30;8.43;;;;;;;;;;4930689;29;20051;-71
2022/07/22 08:55:08;;;;;;;11.48;7.97;;;;;;;;;;4926477;29;20298;-73
2022/07/22 08:57:38;;;;;;;8.52;7.63;;;;;;;;;;4922655;29;20060;-73
2022/07/22 09:00:13;;;;;;;9.88;7.55;;;;;;;;;;4918790;29;20048;-73
2022/07/22 09:02:41;;;;;;;8.75;7.32;;;;;;;;;;4923508;29;20058;-73
2022/07/22 09:05:10;;;;;;;8.98;8.18;;;;;;;;;;4919817;29;20158;-73
2022/07/22 09:07:58;;;;;;;7.18;6.53;;;;;;;;;;4922773;29;20511;-73
2022/07/22 09:10:31;;;;;;;8.93;8.05;;;;;;;;;;4922492;29;20392;-73
2022/07/22 09:13:01;;;;;;;9.15;8.10;;;;;;;;;;4932302;29;20522;-73
2022/07/22 09:15:35;;;;;;;7.88;7.05;;;;;;;;;;4923826;29;20047;-73
2022/07/22 09:18:03;;;;;;;10.80;7.82;;;;;;;;;;4926987;29;20134;-73
2022/07/22 09:20:36;;;;;;;8.65;7.72;;;;;;;;;;4922811;29;20048;-73
2022/07/22 09:23:12;;;;;;;9.98;8.30;;;;;;;;;;4910527;29;20054;-73
2022/07/22 09:25:39;;;;;;;20.70;12.38;;;;;;;;;;4927966;29;20577;-73
2022/07/22 09:28:06;;;;;;;12.05;8.52;;;;;;;;;;4921944;29;20060;-73
2022/07/22 09:31:01;;;;;;;7.90;7.20;;;;;;;;;;4920440;29;20051;-74
2022/07/22 09:33:29;;;;;;;8.18;7.47;;;;;;;;;;4922449;29;20051;-73
2022/07/22 09:36:03;;;;;;;10.57;8.10;;;;;;;;;;4921089;29;20066;-72
2022/07/22 09:38:32;;;;;;;9.90;7.85;;;;;;;;;;4912881;29;20056;-71
2022/07/22 09:40:59;;;;;;;8.93;8.05;;;;;;;;;;4916597;29;20518;-72
2022/07/22 09:43:32;;;;;;;9.95;7.68;;;;;;;;;;4925655;29;20051;-71
2022/07/22 09:45:59;;;;;;;8.77;7.50;;;;;;;;;;4916172;29;20089;-72
2022/07/22 09:48:26;;;;;;;9.20;7.82;;;;;;;;;;4920556;29;20064;-73
2022/07/22 09:50:55;;;;;;;8.10;7.30;;;;;;;;;;4921660;29;20120;-71
2022/07/22 09:53:23;;;;;;;7.65;6.82;;;;;;;;;;4922282;29;20048;-71
2022/07/22 09:55:50;;;;;;;8.23;6.40;;;;;;;;;;4926060;29;20697;-71
2022/07/22 09:58:17;;;;;;;9.90;7.43;;;;;;;;;;4918741;29;20059;-71
2022/07/22 10:00:44;;;;;;;7.68;6.93;;;;;;;;;;4922024;29;20086;-71
2022/07/22 10:03:12;;;;;;;9.88;7.57;;;;;;;;;;4924347;29;20056;-71
2022/07/22 10:05:41;;;;;;;6.82;6.13;;;;;;;;;;4922193;29;20474;-72
2022/07/22 10:08:08;;;;;;;7.97;6.82;;;;;;;;;;4923684;29;20500;-71
2022/07/22 10:10:36;;;;;;;7.60;6.40;;;;;;;;;;4926403;29;20048;-68
2022/07/22 10:13:04;;;;;;;7.97;6.90;;;;;;;;;;4927043;29;20056;-68
2022/07/22 10:15:33;;;;;;;7.30;6.53;;;;;;;;;;4927963;29;20071;-66
2022/07/22 10:18:17;;;;;;;6.70;6.15;;;;;;;;;;4928467;29;20443;-69
2022/07/22 10:20:44;;;;;;;7.68;6.75;;;;;;;;;;4927420;29;20049;-68
2022/07/22 10:23:13;;;;;;;9.13;6.50;;;;;;;;;;4928695;29;20055;-68
2022/07/22 10:25:48;;;;;;;8.70;6.80;;;;;;;;;;4925405;29;20544;-69
2022/07/22 10:28:27;;;;;;;5.82;5.28;;;;;;;;;;4926999;29;20047;-69
2022/07/22 10:31:20;;;;;;;6.13;5.57;;;;;;;;;;4923711;29;20419;-68
2022/07/22 10:33:52;;;;;;;6.93;5.78;;;;;;;;;;4920162;29;20106;-68
2022/07/22 10:36:42;;;;;;;5.85;5.28;;;;;;;;;;4922654;29;20059;-68
2022/07/22 10:39:13;;;;;;;8.27;6.32;;;;;;;;;;4917430;29;20446;-69
2022/07/22 10:41:44;;;;;;;8.05;6.28;;;;;;;;;;4923643;29;20052;-68
2022/07/22 10:44:53;;;;;;;9.55;7.25;;;;;;;;;;4920115;29;20056;-69
2022/07/22 10:47:56;;;;;;;8.88;7.97;;;;;;;;;;4889895;29;20154;-69
2022/07/22 10:50:35;;;;;;;6.82;6.22;;;;;;;;;;4918785;29;20415;-69
2022/07/22 10:53:05;;;;;;;7.60;6.20;;;;;;;;;;4919731;29;20404;-69
2022/07/22 10:55:33;;;;;;;8.27;5.43;;;;;;;;;;4919632;29;20146;-69
2022/07/22 10:58:20;;;;;;;6.22;5.68;;;;;;;;;;4917605;29;20094;-67
2022/07/22 11:00:48;;;;;;;5.85;4.82;;;;;;;;;;4923069;29;20058;-68
2022/07/22 11:03:25;;;;;;;5.70;5.00;;;;;;;;;;4920139;29;20052;-68
2022/07/22 11:05:51;;;;;;;5.70;5.18;;;;;;;;;;4923836;29;20064;-69
2022/07/22 11:08:18;;;;;;;7.30;5.95;;;;;;;;;;4916822;29;20499;-69
2022/07/22 11:10:51;;;;;;;6.22;4.88;;;;;;;;;;4905897;29;20044;-70
2022/07/22 11:13:38;;;;;;;5.68;5.18;;;;;;;;;;4926332;29;20487;-70
2022/07/22 11:16:14;;;;;;;6.18;5.57;;;;;;;;;;4924879;29;20048;-69
2022/07/22 11:18:59;;;;;;;8.05;5.35;;;;;;;;;;4926364;29;20062;-70
2022/07/22 11:21:31;;;;;;;5.80;5.30;;;;;;;;;;4925967;29;20130;-69
2022/07/22 11:24:05;;;;;;;6.18;4.78;;;;;;;;;;4916539;29;20106;-71
2022/07/22 11:26:34;;;;;;;5.82;5.32;;;;;;;;;;4923255;29;20060;-70
2022/07/22 11:29:01;;;;;;;6.32;5.53;;;;;;;;;;4921910;29;20047;-69
2022/07/22 11:31:28;;;;;;;5.85;5.25;;;;;;;;;;4926061;29;20175;-69
2022/07/22 11:34:09;;;;;;;6.72;5.88;;;;;;;;;;4925427;29;20792;-70
2022/07/22 11:36:38;;;;;;;5.50;4.93;;;;;;;;;;4918255;29;20530;-69
2022/07/22 11:39:05;;;;;;;5.70;5.10;;;;;;;;;;4921305;29;20056;-69
2022/07/22 11:41:32;;;;;;;5.65;5.15;;;;;;;;;;4925533;29;20051;-68
2022/07/22 11:43:59;;;;;;;5.72;5.22;;;;;;;;;;4922847;29;20048;-69
2022/07/22 11:46:27;;;;;;;5.82;5.18;;;;;;;;;;4923892;29;20095;-70
2022/07/22 11:48:56;;;;;;;5.78;5.28;;;;;;;;;;4922149;29;20048;-67
2022/07/22 11:51:28;;;;;;;6.57;5.63;;;;;;;;;;4923620;29;20052;-68
2022/07/22 11:53:56;;;;;;;10.18;9.15;;;;;;;;;;4923220;29;20055;-71
2022/07/22 11:56:23;;;;;;;6.53;5.93;;;;;;;;;;4924617;29;20060;-71
2022/07/22 11:58:54;;;;;;;5.50;4.97;;;;;;;;;;4920945;29;20534;-71
2022/07/22 12:01:25;;;;;;;4.78;4.32;;;;;;;;;;4926588;29;20058;-70
2022/07/22 12:03:56;;;;;;;5.30;4.90;;;;;;;;;;4927524;29;20422;-69
2022/07/22 12:06:23;;;;;;;5.82;5.15;;;;;;;;;;4924533;29;20118;-69
2022/07/22 12:09:12;;;;;;;6.72;5.38;;;;;;;;;;4918514;29;20054;-69
2022/07/22 12:11:42;;;;;;;5.50;5.00;;;;;;;;;;4921261;29;20091;-71
2022/07/22 12:14:11;;;;;;;5.68;4.88;;;;;;;;;;4922282;29;20051;-70
2022/07/22 12:16:43;;;;;;;5.10;4.68;;;;;;;;;;4921932;29;20083;-72
2022/07/22 12:19:11;;;;;;;7.05;5.40;;;;;;;;;;4912904;29;20515;-70
2022/07/22 12:21:53;;;;;;;7.45;5.25;;;;;;;;;;4923523;29;20066;-69
2022/07/22 12:24:29;;;;;;;6.00;5.43;;;;;;;;;;4924035;29;20058;-69
2022/07/22 12:26:58;;;;;;;6.28;5.68;;;;;;;;;;4919468;29;20056;-69
2022/07/22 12:29:35;;;;;;;5.85;5.22;;;;;;;;;;4924349;29;20467;-72
2022/07/22 12:32:08;;;;;;;6.00;4.82;;;;;;;;;;4923388;29;20048;-72
2022/07/22 12:34:37;;;;;;;5.70;5.05;;;;;;;;;;4917106;29;20055;-70
2022/07/22 12:37:16;;;;;;;5.63;5.13;;;;;;;;;;4920985;29;20413;-69
2022/07/22 12:40:13;;;;;;;5.35;4.65;;;;;;;;;;4921237;29;20059;-69
2022/07/22 12:42:44;;;;;;;5.13;4.63;;;;;;;;;;4920988;29;20044;-70
2022/07/22 12:45:16;;;;;;;6.43;4.93;;;;;;;;;;4921829;29;20423;-67
2022/07/22 12:47:55;;;;;;;6.25;4.38;;;;;;;;;;4921499;29;20052;-67
2022/07/22 12:50:37;;;;;;;5.57;5.07;;;;;;;;;;4925267;29;20090;-67
2022/07/22 12:53:12;;;;;;;5.57;4.57;;;;;;;;;;4921151;29;20138;-67
2022/07/22 12:55:46;;;;;;;4.80;4.40;;;;;;;;;;4914933;29;20052;-67
2022/07/22 12:58:13;;;;;;;4.85;4.43;;;;;;;;;;4915463;29;20052;-67
2022/07/22 13:00:50;;;;;;;5.55;4.93;;;;;;;;;;4914493;29;20056;-68
2022/07/22 13:03:27;;;;;;;6.13;4.70;;;;;;;;;;4908988;29;20059;-72
2022/07/22 13:05:59;;;;;;;4.70;4.25;;;;;;;;;;4912980;29;20051;-68
2022/07/22 13:08:28;;;;;;;5.63;4.72;;;;;;;;;;4915898;29;20055;-68
2022/07/22 13:11:11;;;;;;;4.57;4.18;;;;;;;;;;4921594;29;20052;-69
2022/07/22 13:13:37;;;;;;;4.43;4.10;;;;;;;;;;4924877;29;20526;-68
2022/07/22 13:16:04;;;;;;;4.47;3.90;;;;;;;;;;4930586;29;20051;-68
2022/07/22 13:18:31;;;;;;;4.70;4.20;;;;;;;;;;4926554;29;20047;-68
2022/07/22 13:20:58;;;;;;;5.40;4.63;;;;;;;;;;4917563;29;20530;-68
2022/07/22 13:23:25;;;;;;;4.78;4.38;;;;;;;;;;4926469;29;20052;-67
2022/07/22 13:25:52;;;;;;;4.60;4.20;;;;;;;;;;4929463;29;20060;-68
2022/07/22 13:28:21;;;;;;;5.00;4.60;;;;;;;;;;4925482;29;20575;-68
2022/07/22 13:30:48;;;;;;;3.90;3.60;;;;;;;;;;4920534;29;20056;-68
2022/07/22 13:33:16;;;;;;;4.35;3.88;;;;;;;;;;4928279;29;20480;-68
2022/07/22 13:35:43;;;;;;;4.30;3.92;;;;;;;;;;4929181;29;20217;-68
2022/07/22 13:38:10;;;;;;;3.92;3.63;;;;;;;;;;4928249;29;20044;-68
2022/07/22 13:40:41;;;;;;;3.95;3.65;;;;;;;;;;4925663;29;20159;-69
2022/07/22 13:43:08;;;;;;;4.03;3.72;;;;;;;;;;4929532;29;20047;-69
2022/07/22 13:45:41;;;;;;;4.82;3.78;;;;;;;;;;4925912;29;20130;-70
2022/07/22 13:48:08;;;;;;;4.60;3.75;;;;;;;;;;4928967;29;20056;-67
2022/07/22 13:50:34;;;;;;;5.18;4.13;;;;;;;;;;4906974;29;20412;-67
2022/07/22 13:53:01;;;;;;;4.10;3.80;;;;;;;;;;4929396;29;20404;-68
2022/07/22 13:55:29;;;;;;;4.38;3.17;;;;;;;;;;4927789;29;20079;-68
2022/07/22 13:57:57;;;;;;;3.65;3.35;;;;;;;;;;4927440;29;20060;-68
2022/07/22 14:00:24;;;;;;;3.72;3.50;;;;;;;;;;4924280;29;20052;-68
2022/07/22 14:02:52;;;;;;;4.28;3.75;;;;;;;;;;4927904;29;20059;-68
2022/07/22 14:05:18;;;;;;;4.90;3.60;;;;;;;;;;4929148;29;20058;-69
2022/07/22 14:07:45;;;;;;;3.95;3.65;;;;;;;;;;4927529;29;20055;-68
2022/07/22 14:10:13;;;;;;;4.65;4.20;;;;;;;;;;4927604;29;20048;-69
2022/07/22 14:12:40;;;;;;;4.10;3.80;;;;;;;;;;4924916;29;20158;-68
2022/07/22 14:15:07;;;;;;;3.95;3.65;;;;;;;;;;4929026;29;20499;-69
2022/07/22 14:17:34;;;;;;;3.58;3.28;;;;;;;;;;4926469;29;20052;-69
2022/07/22 14:20:02;;;;;;;4.57;3.85;;;;;;;;;;4924763;29;20044;-69
2022/07/22 14:22:28;;;;;;;6.95;3.83;;;;;;;;;;4922805;29;20491;-69
2022/07/22 14:24:55;;;;;;;4.90;4.20;;;;;;;;;;4928161;29;20052;-69
2022/07/22 14:27:22;;;;;;;3.90;3.35;;;;;;;;;;4926419;29;20052;-69
2022/07/22 14:29:48;;;;;;;4.05;3.65;;;;;;;;;;4926394;29;20078;-68
2022/07/22 14:32:15;;;;;;;4.40;4.05;;;;;;;;;;4927461;29;20066;-68
2022/07/22 14:34:42;;;;;;;4.80;3.38;;;;;;;;;;4924912;29;20059;-68
2022/07/22 14:37:08;;;;;;;4.05;3.40;;;;;;;;;;4927669;29;20048;-68
2022/07/22 14:39:35;;;;;;;5.55;4.07;;;;;;;;;;4926612;29;20052;-69
2022/07/22 14:42:02;;;;;;;6.07;4.15;;;;;;;;;;4919601;29;20422;-69
2022/07/22 14:44:28;;;;;;;5.00;4.03;;;;;;;;;;4923481;29;20050;-68